Terminal Aerodrome Forecast
Issued by NWS

Home | Current Version | Previous Version | Text Only | Print | Product List | Glossary On
Versions: 1 2 3 4 5 6 7 8 9 10 11 12 13 14 15 16 17
000
FTUS43 KDVN 272325
TAFCID
TAF
KCID 272325Z 2800/2824 28008KT P6SM BKN200
     FM280500 32008KT P6SM SCT040 BKN060
     FM280900 33010KT P6SM VCSH BKN035
     FM281400 34011G17KT P6SM OVC030
     FM281700 34013G19KT P6SM OVC040=

USA.gov is the U.S. government's official web portal to all federal, state and local government web resources and services.